DLH1YL EDDM-LKPR
Flight info
| Callsign | DLH1YL |
|---|---|
| Flight time | 0h 48m |
| Altitude | 26000 |
| Route | AKINI1N/26R AKINI Y104 MAMOR L132 AGNAV DCT LOMKI |
| Aircraft | A320/M-SDE3FGHIRWY/LB1 |
Departure
| Time | 2026-05-06 17:56 |
|---|---|
| Airport | Munich Airport (EDDM) |
Arrival
| Time | 2026-05-06 18:44 |
|---|---|
| Airport | Václav Havel Airport Prague (LKPR) |
| Time | Latitude | Longitude | Altitude | Speed | Heading |
|---|---|---|---|---|---|
| 2026-05-06 17:03 | 48.35245 | 11.79773 | 1486 ft | 0 kts | 83° |
| 2026-05-06 17:40 | 48.35245 | 11.79769 | 1486 ft | 2 kts | 83° |
| 2026-05-06 17:40 | 48.35242 | 11.79730 | 1486 ft | 4 kts | 83° |
| 2026-05-06 17:41 | 48.35239 | 11.79694 | 1486 ft | 1 kts | 83° |
| 2026-05-06 17:41 | 48.35235 | 11.79659 | 1471 ft | 4 kts | 63° |
| 2026-05-06 17:41 | 48.35219 | 11.79633 | 1486 ft | 4 kts | 7° |
| 2026-05-06 17:41 | 48.35195 | 11.79635 | 1486 ft | 2 kts | 353° |
| 2026-05-06 17:42 | 48.35193 | 11.79635 | 1486 ft | 0 kts | 353° |
| 2026-05-06 17:47 | 48.35227 | 11.79629 | 1481 ft | 8 kts | 353° |
| 2026-05-06 17:47 | 48.35278 | 11.79620 | 1478 ft | 7 kts | 353° |
| 2026-05-06 17:47 | 48.35337 | 11.79610 | 1479 ft | 11 kts | 353° |
| 2026-05-06 17:47 | 48.35435 | 11.79594 | 1477 ft | 17 kts | 353° |
| 2026-05-06 17:48 | 48.35568 | 11.79570 | 1479 ft | 21 kts | 354° |
| 2026-05-06 17:48 | 48.35703 | 11.79546 | 1482 ft | 18 kts | 353° |
| 2026-05-06 17:48 | 48.35804 | 11.79530 | 1485 ft | 14 kts | 353° |
| 2026-05-06 17:48 | 48.35899 | 11.79513 | 1473 ft | 13 kts | 353° |
| 2026-05-06 17:49 | 48.35957 | 11.79503 | 1474 ft | 11 kts | 354° |
| 2026-05-06 17:49 | 48.36025 | 11.79491 | 1477 ft | 9 kts | 353° |
| 2026-05-06 17:49 | 48.36060 | 11.79485 | 1485 ft | 0 kts | 353° |
| 2026-05-06 17:50 | 48.36082 | 11.79481 | 1485 ft | 11 kts | 353° |
| 2026-05-06 17:50 | 48.36177 | 11.79468 | 1475 ft | 10 kts | 0° |
| 2026-05-06 17:51 | 48.36217 | 11.79524 | 1485 ft | 7 kts | 70° |
| 2026-05-06 17:51 | 48.36221 | 11.79591 | 1476 ft | 7 kts | 82° |
| 2026-05-06 17:51 | 48.36232 | 11.79714 | 1485 ft | 15 kts | 83° |
| 2026-05-06 17:51 | 48.36243 | 11.79857 | 1485 ft | 13 kts | 83° |
| 2026-05-06 17:52 | 48.36253 | 11.79989 | 1485 ft | 13 kts | 83° |
| 2026-05-06 17:52 | 48.36264 | 11.80135 | 1481 ft | 15 kts | 84° |
| 2026-05-06 17:52 | 48.36276 | 11.80306 | 1474 ft | 18 kts | 91° |
| 2026-05-06 17:52 | 48.36292 | 11.80492 | 1475 ft | 19 kts | 84° |
| 2026-05-06 17:53 | 48.36309 | 11.80709 | 1486 ft | 23 kts | 83° |
| 2026-05-06 17:53 | 48.36328 | 11.80960 | 1486 ft | 26 kts | 84° |
| 2026-05-06 17:53 | 48.36350 | 11.81241 | 1483 ft | 28 kts | 84° |
| 2026-05-06 17:53 | 48.36371 | 11.81517 | 1486 ft | 25 kts | 82° |
| 2026-05-06 17:54 | 48.36387 | 11.81764 | 1481 ft | 25 kts | 82° |
| 2026-05-06 17:54 | 48.36395 | 11.81931 | 1486 ft | 10 kts | 91° |
| 2026-05-06 17:54 | 48.36436 | 11.82006 | 1481 ft | 11 kts | 9° |
| 2026-05-06 17:54 | 48.36512 | 11.81992 | 1472 ft | 12 kts | 354° |
| 2026-05-06 17:55 | 48.36604 | 11.81976 | 1486 ft | 15 kts | 350° |
| 2026-05-06 17:55 | 48.36668 | 11.81874 | 1482 ft | 16 kts | 275° |
| 2026-05-06 17:55 | 48.36641 | 11.81504 | 1478 ft | 72 kts | 262° |
| 2026-05-06 17:55 | 48.36555 | 11.80375 | 1486 ft | 140 kts | 262° |
| 2026-05-06 17:56 | 48.36437 | 11.78812 | 2001 ft | 149 kts | 263° |
| 2026-05-06 17:56 | 48.36336 | 11.77397 | 2689 ft | 150 kts | 262° |
| 2026-05-06 17:56 | 48.36210 | 11.75773 | 3166 ft | 163 kts | 262° |
| 2026-05-06 17:56 | 48.36069 | 11.74003 | 3568 ft | 179 kts | 263° |
| 2026-05-06 17:57 | 48.35916 | 11.72057 | 3976 ft | 195 kts | 263° |
| 2026-05-06 17:57 | 48.35792 | 11.69941 | 4403 ft | 211 kts | 274° |
| 2026-05-06 17:57 | 48.36212 | 11.67760 | 4854 ft | 226 kts | 302° |
| 2026-05-06 17:57 | 48.37312 | 11.66018 | 5473 ft | 237 kts | 329° |
| 2026-05-06 17:58 | 48.38863 | 11.65185 | 6249 ft | 242 kts | 349° |
| 2026-05-06 17:58 | 48.40575 | 11.64665 | 6815 ft | 259 kts | 348° |
| 2026-05-06 17:58 | 48.42399 | 11.64113 | 7378 ft | 276 kts | 349° |
| 2026-05-06 17:58 | 48.44329 | 11.63635 | 8106 ft | 284 kts | 358° |
| 2026-05-06 17:59 | 48.46270 | 11.63878 | 8951 ft | 287 kts | 14° |
| 2026-05-06 17:59 | 48.48141 | 11.64982 | 9778 ft | 291 kts | 32° |
| 2026-05-06 17:59 | 48.49720 | 11.66883 | 10566 ft | 294 kts | 50° |
| 2026-05-06 17:59 | 48.50959 | 11.69371 | 11296 ft | 299 kts | 57° |
| 2026-05-06 18:00 | 48.52186 | 11.71954 | 11957 ft | 308 kts | 56° |
| 2026-05-06 18:00 | 48.53466 | 11.74611 | 12591 ft | 317 kts | 56° |
| 2026-05-06 18:00 | 48.54785 | 11.77327 | 13239 ft | 324 kts | 55° |
| 2026-05-06 18:00 | 48.56132 | 11.80100 | 13921 ft | 330 kts | 55° |
| 2026-05-06 18:01 | 48.57653 | 11.82759 | 14402 ft | 344 kts | 39° |
| 2026-05-06 18:01 | 48.59707 | 11.84758 | 14783 ft | 359 kts | 30° |
| 2026-05-06 18:01 | 48.61904 | 11.86702 | 15109 ft | 375 kts | 30° |
| 2026-05-06 18:01 | 48.64185 | 11.88713 | 15642 ft | 383 kts | 30° |
| 2026-05-06 18:02 | 48.66498 | 11.90763 | 16266 ft | 388 kts | 30° |
| 2026-05-06 18:02 | 48.68822 | 11.92878 | 16886 ft | 392 kts | 32° |
| 2026-05-06 18:02 | 48.71118 | 11.95170 | 17483 ft | 397 kts | 34° |
| 2026-05-06 18:02 | 48.73381 | 11.97585 | 18068 ft | 401 kts | 36° |
| 2026-05-06 18:03 | 48.75625 | 12.00055 | 18626 ft | 406 kts | 36° |
| 2026-05-06 18:03 | 48.77935 | 12.02575 | 19198 ft | 410 kts | 35° |
| 2026-05-06 18:03 | 48.80279 | 12.05092 | 19748 ft | 415 kts | 34° |
| 2026-05-06 18:03 | 48.82655 | 12.07601 | 20337 ft | 418 kts | 34° |
| 2026-05-06 18:04 | 48.85061 | 12.10111 | 20904 ft | 421 kts | 34° |
| 2026-05-06 18:04 | 48.87492 | 12.12643 | 21450 ft | 425 kts | 34° |
| 2026-05-06 18:04 | 48.89930 | 12.15188 | 22001 ft | 428 kts | 33° |
| 2026-05-06 18:04 | 48.92398 | 12.17773 | 22534 ft | 431 kts | 34° |
| 2026-05-06 18:05 | 48.94878 | 12.20378 | 23060 ft | 434 kts | 34° |
| 2026-05-06 18:05 | 48.97368 | 12.22997 | 23567 ft | 437 kts | 34° |
| 2026-05-06 18:05 | 48.99883 | 12.25649 | 24049 ft | 441 kts | 34° |
| 2026-05-06 18:05 | 49.02374 | 12.28285 | 24516 ft | 444 kts | 34° |
| 2026-05-06 18:06 | 49.04943 | 12.31008 | 24971 ft | 447 kts | 34° |
| 2026-05-06 18:06 | 49.07521 | 12.33743 | 25395 ft | 451 kts | 34° |
| 2026-05-06 18:06 | 49.10108 | 12.36491 | 25703 ft | 454 kts | 34° |
| 2026-05-06 18:06 | 49.12685 | 12.39232 | 25770 ft | 445 kts | 34° |
| 2026-05-06 18:07 | 49.15142 | 12.41849 | 25778 ft | 428 kts | 34° |
| 2026-05-06 18:07 | 49.17571 | 12.44438 | 25776 ft | 426 kts | 34° |
| 2026-05-06 18:07 | 49.20001 | 12.47029 | 25776 ft | 426 kts | 34° |
| 2026-05-06 18:07 | 49.22429 | 12.49620 | 25776 ft | 426 kts | 34° |
| 2026-05-06 18:08 | 49.24787 | 12.52138 | 25662 ft | 422 kts | 34° |
| 2026-05-06 18:08 | 49.27169 | 12.54689 | 25414 ft | 414 kts | 34° |
| 2026-05-06 18:08 | 49.29504 | 12.57194 | 25167 ft | 408 kts | 34° |
| 2026-05-06 18:08 | 49.31826 | 12.59686 | 24915 ft | 406 kts | 34° |
| 2026-05-06 18:09 | 49.34141 | 12.62170 | 24665 ft | 405 kts | 34° |
| 2026-05-06 18:09 | 49.36443 | 12.64644 | 24415 ft | 403 kts | 34° |
| 2026-05-06 18:09 | 49.38735 | 12.67113 | 24164 ft | 401 kts | 34° |
| 2026-05-06 18:09 | 49.41004 | 12.69558 | 23913 ft | 398 kts | 34° |
| 2026-05-06 18:10 | 49.43273 | 12.72004 | 23665 ft | 397 kts | 34° |
| 2026-05-06 18:10 | 49.45500 | 12.74411 | 23419 ft | 396 kts | 34° |
| 2026-05-06 18:10 | 49.47744 | 12.76841 | 23167 ft | 393 kts | 34° |
| 2026-05-06 18:10 | 49.49978 | 12.79265 | 22919 ft | 392 kts | 34° |
| 2026-05-06 18:11 | 49.52201 | 12.81685 | 22671 ft | 391 kts | 34° |
| 2026-05-06 18:11 | 49.54415 | 12.84093 | 22418 ft | 389 kts | 35° |
| 2026-05-06 18:11 | 49.56676 | 12.86561 | 22168 ft | 410 kts | 34° |
| 2026-05-06 18:11 | 49.59088 | 12.89189 | 21915 ft | 435 kts | 34° |
| 2026-05-06 18:12 | 49.61562 | 12.91882 | 21660 ft | 436 kts | 34° |
| 2026-05-06 18:12 | 49.64035 | 12.94577 | 21407 ft | 434 kts | 34° |
| 2026-05-06 18:12 | 49.66503 | 12.97271 | 21159 ft | 433 kts | 35° |
| 2026-05-06 18:12 | 49.68957 | 12.99955 | 20908 ft | 431 kts | 35° |
| 2026-05-06 18:13 | 49.71367 | 13.02593 | 20662 ft | 429 kts | 35° |
| 2026-05-06 18:13 | 49.73806 | 13.05260 | 20411 ft | 428 kts | 35° |
| 2026-05-06 18:13 | 49.76230 | 13.07915 | 20162 ft | 426 kts | 35° |
| 2026-05-06 18:13 | 49.78646 | 13.10566 | 19912 ft | 424 kts | 35° |
| 2026-05-06 18:14 | 49.81047 | 13.13209 | 19660 ft | 422 kts | 35° |
| 2026-05-06 18:14 | 49.83434 | 13.15839 | 19411 ft | 421 kts | 35° |
| 2026-05-06 18:14 | 49.85812 | 13.18457 | 19161 ft | 419 kts | 35° |
| 2026-05-06 18:14 | 49.88042 | 13.21336 | 18839 ft | 416 kts | 49° |
| 2026-05-06 18:15 | 49.89637 | 13.24999 | 18629 ft | 400 kts | 67° |
| 2026-05-06 18:15 | 49.90475 | 13.28914 | 18500 ft | 370 kts | 82° |
| 2026-05-06 18:15 | 49.90642 | 13.32743 | 18377 ft | 343 kts | 96° |
| 2026-05-06 18:15 | 49.90513 | 13.36335 | 18135 ft | 327 kts | 96° |
| 2026-05-06 18:16 | 49.90384 | 13.39822 | 17659 ft | 321 kts | 96° |
| 2026-05-06 18:16 | 49.90252 | 13.43255 | 17094 ft | 317 kts | 96° |
| 2026-05-06 18:16 | 49.90125 | 13.46618 | 16545 ft | 315 kts | 96° |
| 2026-05-06 18:16 | 49.90001 | 13.49998 | 16000 ft | 312 kts | 96° |
| 2026-05-06 18:17 | 49.90029 | 13.53346 | 15471 ft | 311 kts | 84° |
| 2026-05-06 18:17 | 49.90528 | 13.56619 | 15157 ft | 313 kts | 71° |
| 2026-05-06 18:17 | 49.91461 | 13.59646 | 14881 ft | 311 kts | 58° |
| 2026-05-06 18:17 | 49.92630 | 13.62478 | 14586 ft | 309 kts | 57° |
| 2026-05-06 18:18 | 49.93781 | 13.65265 | 14044 ft | 305 kts | 58° |
| 2026-05-06 18:18 | 49.94919 | 13.68040 | 13518 ft | 304 kts | 58° |
| 2026-05-06 18:18 | 49.96052 | 13.70809 | 13103 ft | 307 kts | 58° |
| 2026-05-06 18:18 | 49.97192 | 13.73602 | 12808 ft | 303 kts | 58° |
| 2026-05-06 18:19 | 49.98306 | 13.76329 | 12753 ft | 299 kts | 58° |
| 2026-05-06 18:19 | 49.99420 | 13.79065 | 12758 ft | 299 kts | 58° |
| 2026-05-06 18:19 | 50.00532 | 13.81799 | 12750 ft | 299 kts | 58° |
| 2026-05-06 18:19 | 50.01646 | 13.84530 | 12709 ft | 300 kts | 58° |
| 2026-05-06 18:20 | 50.02788 | 13.87327 | 12123 ft | 307 kts | 58° |
| 2026-05-06 18:20 | 50.03902 | 13.90056 | 11834 ft | 295 kts | 59° |
| 2026-05-06 18:20 | 50.05005 | 13.92716 | 11316 ft | 291 kts | 54° |
| 2026-05-06 18:20 | 50.06497 | 13.94787 | 10822 ft | 287 kts | 26° |
| 2026-05-06 18:21 | 50.08374 | 13.95689 | 10258 ft | 282 kts | 8° |
| 2026-05-06 18:21 | 50.10316 | 13.96098 | 9653 ft | 282 kts | 6° |
| 2026-05-06 18:21 | 50.12262 | 13.96422 | 9083 ft | 280 kts | 5° |
| 2026-05-06 18:21 | 50.14145 | 13.96196 | 8791 ft | 264 kts | 338° |
| 2026-05-06 18:22 | 50.15643 | 13.94804 | 8747 ft | 247 kts | 318° |
| 2026-05-06 18:22 | 50.16962 | 13.93027 | 8759 ft | 253 kts | 315° |
| 2026-05-06 18:22 | 50.18268 | 13.91171 | 8746 ft | 254 kts | 315° |
| 2026-05-06 18:22 | 50.19560 | 13.89320 | 8757 ft | 253 kts | 315° |
| 2026-05-06 18:23 | 50.20861 | 13.87460 | 8756 ft | 253 kts | 315° |
| 2026-05-06 18:23 | 50.22153 | 13.85610 | 8757 ft | 251 kts | 315° |
| 2026-05-06 18:23 | 50.23445 | 13.83758 | 8752 ft | 252 kts | 315° |
| 2026-05-06 18:23 | 50.24738 | 13.81904 | 8759 ft | 250 kts | 315° |
| 2026-05-06 18:24 | 50.26032 | 13.80040 | 8612 ft | 251 kts | 315° |
| 2026-05-06 18:24 | 50.27458 | 13.78542 | 8292 ft | 246 kts | 341° |
| 2026-05-06 18:24 | 50.29119 | 13.78330 | 7861 ft | 247 kts | 14° |
| 2026-05-06 18:24 | 50.30649 | 13.79525 | 7491 ft | 243 kts | 46° |
| 2026-05-06 18:25 | 50.31518 | 13.81677 | 7121 ft | 236 kts | 78° |
| 2026-05-06 18:25 | 50.31411 | 13.84136 | 6801 ft | 226 kts | 121° |
| 2026-05-06 18:25 | 50.30281 | 13.85808 | 6756 ft | 228 kts | 157° |
| 2026-05-06 18:25 | 50.28831 | 13.86837 | 6752 ft | 230 kts | 146° |
| 2026-05-06 18:26 | 50.27816 | 13.88736 | 6592 ft | 230 kts | 122° |
| 2026-05-06 18:26 | 50.26950 | 13.90823 | 6251 ft | 229 kts | 127° |
| 2026-05-06 18:26 | 50.26009 | 13.92821 | 5914 ft | 227 kts | 128° |
| 2026-05-06 18:26 | 50.25066 | 13.94802 | 5665 ft | 224 kts | 128° |
| 2026-05-06 18:27 | 50.24123 | 13.96768 | 5444 ft | 227 kts | 127° |
| 2026-05-06 18:27 | 50.23182 | 13.98740 | 5161 ft | 226 kts | 127° |
| 2026-05-06 18:27 | 50.22267 | 14.00656 | 4874 ft | 214 kts | 127° |
| 2026-05-06 18:27 | 50.21397 | 14.02476 | 4595 ft | 205 kts | 127° |
| 2026-05-06 18:28 | 50.20561 | 14.04222 | 4330 ft | 196 kts | 126° |
| 2026-05-06 18:28 | 50.19749 | 14.05914 | 4073 ft | 194 kts | 125° |
| 2026-05-06 18:28 | 50.18943 | 14.07597 | 3818 ft | 192 kts | 124° |
| 2026-05-06 18:28 | 50.18134 | 14.09288 | 3559 ft | 196 kts | 124° |
| 2026-05-06 18:29 | 50.17327 | 14.10965 | 3301 ft | 192 kts | 124° |
| 2026-05-06 18:29 | 50.16538 | 14.12611 | 3044 ft | 184 kts | 123° |
| 2026-05-06 18:29 | 50.15801 | 14.14144 | 2815 ft | 172 kts | 123° |
| 2026-05-06 18:29 | 50.15087 | 14.15630 | 2586 ft | 169 kts | 123° |
| 2026-05-06 18:30 | 50.14407 | 14.17044 | 2371 ft | 157 kts | 126° |
| 2026-05-06 18:30 | 50.13781 | 14.18346 | 2173 ft | 147 kts | 126° |
| 2026-05-06 18:30 | 50.13167 | 14.19625 | 1979 ft | 147 kts | 126° |
| 2026-05-06 18:30 | 50.12555 | 14.20893 | 1785 ft | 146 kts | 126° |
| 2026-05-06 18:31 | 50.11953 | 14.22141 | 1593 ft | 146 kts | 126° |
| 2026-05-06 18:31 | 50.11342 | 14.23409 | 1398 ft | 146 kts | 126° |
| 2026-05-06 18:31 | 50.10733 | 14.24671 | 1207 ft | 146 kts | 126° |
| 2026-05-06 18:31 | 50.10107 | 14.25977 | 1472 ft | 158 kts | 126° |
| 2026-05-06 18:32 | 50.09446 | 14.27352 | 2370 ft | 161 kts | 126° |
| 2026-05-06 18:32 | 50.08742 | 14.28798 | 3138 ft | 172 kts | 126° |
| 2026-05-06 18:32 | 50.07987 | 14.30320 | 3580 ft | 185 kts | 125° |
| 2026-05-06 18:32 | 50.07142 | 14.31958 | 3927 ft | 204 kts | 127° |
| 2026-05-06 18:33 | 50.06274 | 14.33885 | 3982 ft | 224 kts | 111° |
| 2026-05-06 18:33 | 50.06078 | 14.36233 | 4012 ft | 221 kts | 77° |
| 2026-05-06 18:33 | 50.06760 | 14.38316 | 3999 ft | 218 kts | 42° |
| 2026-05-06 18:33 | 50.07591 | 14.39184 | 4004 ft | 218 kts | 19° |
| 2026-05-06 18:34 | 50.09575 | 14.39791 | 4007 ft | 218 kts | 6° |
| 2026-05-06 18:34 | 50.11088 | 14.40024 | 4009 ft | 218 kts | 5° |
| 2026-05-06 18:34 | 50.12599 | 14.40236 | 4009 ft | 218 kts | 5° |
| 2026-05-06 18:34 | 50.14115 | 14.40444 | 4009 ft | 218 kts | 5° |
| 2026-05-06 18:35 | 50.15621 | 14.40341 | 4013 ft | 221 kts | 341° |
| 2026-05-06 18:35 | 50.16941 | 14.38974 | 4011 ft | 234 kts | 312° |
| 2026-05-06 18:35 | 50.17855 | 14.37143 | 3995 ft | 235 kts | 306° |
| 2026-05-06 18:35 | 50.18473 | 14.35762 | 4007 ft | 235 kts | 305° |
| 2026-05-06 18:36 | 50.19395 | 14.33652 | 4001 ft | 235 kts | 305° |
| 2026-05-06 18:36 | 50.20313 | 14.31548 | 4002 ft | 234 kts | 305° |
| 2026-05-06 18:36 | 50.21232 | 14.29435 | 4007 ft | 235 kts | 305° |
| 2026-05-06 18:36 | 50.22449 | 14.26632 | 4003 ft | 235 kts | 305° |
| 2026-05-06 18:37 | 50.23068 | 14.25206 | 4008 ft | 235 kts | 305° |
| 2026-05-06 18:37 | 50.23987 | 14.23092 | 4005 ft | 235 kts | 305° |
| 2026-05-06 18:37 | 50.24892 | 14.21009 | 4008 ft | 235 kts | 305° |
| 2026-05-06 18:37 | 50.25820 | 14.18861 | 4005 ft | 235 kts | 305° |
| 2026-05-06 18:38 | 50.26725 | 14.16775 | 4011 ft | 235 kts | 305° |
| 2026-05-06 18:38 | 50.27630 | 14.14651 | 4002 ft | 235 kts | 300° |
| 2026-05-06 18:38 | 50.28051 | 14.12201 | 4003 ft | 237 kts | 268° |
| 2026-05-06 18:38 | 50.27780 | 14.09697 | 3993 ft | 226 kts | 257° |
| 2026-05-06 18:39 | 50.27382 | 14.07399 | 4012 ft | 217 kts | 255° |
| 2026-05-06 18:39 | 50.26964 | 14.05110 | 4008 ft | 219 kts | 255° |
| 2026-05-06 18:39 | 50.26506 | 14.02845 | 4004 ft | 219 kts | 244° |
| 2026-05-06 18:40 | 50.24035 | 14.00529 | 4007 ft | 220 kts | 173° |
| 2026-05-06 18:40 | 50.22566 | 14.01145 | 4000 ft | 219 kts | 151° |
| 2026-05-06 18:40 | 50.21362 | 14.02577 | 3999 ft | 217 kts | 128° |
| 2026-05-06 18:40 | 50.20454 | 14.04439 | 4004 ft | 212 kts | 125° |
| 2026-05-06 18:41 | 50.19601 | 14.06226 | 3941 ft | 201 kts | 125° |
| 2026-05-06 18:41 | 50.18774 | 14.07946 | 3767 ft | 199 kts | 124° |
| 2026-05-06 18:41 | 50.17953 | 14.09663 | 3501 ft | 195 kts | 124° |
| 2026-05-06 18:41 | 50.17162 | 14.11312 | 3244 ft | 183 kts | 123° |
| 2026-05-06 18:42 | 50.16426 | 14.12844 | 3019 ft | 175 kts | 123° |
| 2026-05-06 18:42 | 50.15700 | 14.14354 | 2779 ft | 172 kts | 123° |
| 2026-05-06 18:42 | 50.14993 | 14.15826 | 2560 ft | 169 kts | 123° |
| 2026-05-06 18:42 | 50.14300 | 14.17267 | 2351 ft | 159 kts | 126° |
| 2026-05-06 18:43 | 50.13665 | 14.18587 | 2139 ft | 145 kts | 126° |
| 2026-05-06 18:43 | 50.13063 | 14.19838 | 1947 ft | 145 kts | 126° |
| 2026-05-06 18:43 | 50.12460 | 14.21089 | 1749 ft | 144 kts | 126° |
| 2026-05-06 18:43 | 50.11876 | 14.22301 | 1567 ft | 144 kts | 126° |
| 2026-05-06 18:44 | 50.11278 | 14.23542 | 1377 ft | 143 kts | 126° |
| 2026-05-06 18:44 | 50.10680 | 14.24781 | 1189 ft | 143 kts | 126° |
| 2026-05-06 18:44 | 50.10143 | 14.25896 | 1190 ft | 103 kts | 126° |
| 2026-05-06 18:44 | 50.09847 | 14.26529 | 1213 ft | 39 kts | 127° |
| 2026-05-06 18:45 | 50.09696 | 14.26828 | 1217 ft | 33 kts | 124° |
| 2026-05-06 18:45 | 50.09563 | 14.27100 | 1215 ft | 30 kts | 130° |
| 2026-05-06 18:45 | 50.09448 | 14.27340 | 1218 ft | 21 kts | 128° |
| 2026-05-06 18:45 | 50.09429 | 14.27456 | 1218 ft | 8 kts | 53° |
| 2026-05-06 18:46 | 50.09479 | 14.27512 | 1215 ft | 10 kts | 34° |
| 2026-05-06 18:46 | 50.09540 | 14.27580 | 1212 ft | 12 kts | 36° |
| 2026-05-06 18:46 | 50.09580 | 14.27625 | 1210 ft | 4 kts | 36° |
| 2026-05-06 18:46 | 50.09608 | 14.27653 | 1209 ft | 5 kts | 23° |
| 2026-05-06 18:47 | 50.09665 | 14.27605 | 1207 ft | 16 kts | 316° |
| 2026-05-06 18:47 | 50.09747 | 14.27480 | 1206 ft | 18 kts | 316° |
| 2026-05-06 18:47 | 50.09839 | 14.27340 | 1205 ft | 18 kts | 314° |
| 2026-05-06 18:47 | 50.09902 | 14.27218 | 1205 ft | 14 kts | 307° |
| 2026-05-06 18:48 | 50.09954 | 14.27109 | 1206 ft | 11 kts | 307° |
| 2026-05-06 18:48 | 50.10007 | 14.27000 | 1204 ft | 14 kts | 307° |
| 2026-05-06 18:48 | 50.10073 | 14.26863 | 1201 ft | 17 kts | 306° |
| 2026-05-06 18:48 | 50.10150 | 14.26702 | 1197 ft | 19 kts | 309° |
| 2026-05-06 18:49 | 50.10231 | 14.26536 | 1195 ft | 16 kts | 308° |
| 2026-05-06 18:49 | 50.10301 | 14.26397 | 1192 ft | 18 kts | 303° |
| 2026-05-06 18:49 | 50.10358 | 14.26269 | 1190 ft | 14 kts | 311° |
| 2026-05-06 18:49 | 50.10411 | 14.26163 | 1188 ft | 2 kts | 306° |
| 2026-05-06 18:50 | 50.10422 | 14.26139 | 1187 ft | 3 kts | 306° |
| 2026-05-06 18:50 | 50.10446 | 14.26087 | 1186 ft | 8 kts | 306° |
| 2026-05-06 18:50 | 50.10480 | 14.26017 | 1185 ft | 8 kts | 307° |
| 2026-05-06 18:50 | 50.10522 | 14.25974 | 1184 ft | 7 kts | 356° |
| 2026-05-06 18:51 | 50.10573 | 14.26016 | 1180 ft | 10 kts | 44° |
| 2026-05-06 18:51 | 50.10567 | 14.26125 | 1177 ft | 11 kts | 124° |
| 2026-05-06 18:51 | 50.10535 | 14.26229 | 1174 ft | 10 kts | 106° |
| 2026-05-06 18:51 | 50.10506 | 14.26313 | 1177 ft | 8 kts | 124° |
| 2026-05-06 18:52 | 50.10479 | 14.26374 | 1174 ft | 7 kts | 124° |
| 2026-05-06 18:52 | 50.10447 | 14.26446 | 1178 ft | 9 kts | 125° |
| 2026-05-06 18:52 | 50.10416 | 14.26503 | 1175 ft | 5 kts | 138° |
| 2026-05-06 18:52 | 50.10402 | 14.26532 | 1179 ft | 2 kts | 107° |
| 2026-05-06 18:53 | 50.10418 | 14.26563 | 1178 ft | 5 kts | 39° |
| 2026-05-06 18:53 | 50.10431 | 14.26576 | 1173 ft | 1 kts | 34° |
| 2026-05-06 18:53 | 50.10437 | 14.26582 | 1178 ft | 1 kts | 34° |
| 2026-05-06 18:53 | 50.10438 | 14.26584 | 1178 ft | 0 kts | 34° |
| 2026-05-06 18:54 | 50.10439 | 14.26584 | 1178 ft | 0 kts | 34° |